createdAt,value
2023-04-09T00:05:14.664Z,52.30
2023-04-09T00:11:15.200Z,47.70
2023-04-09T00:17:48.575Z,41.20
2023-04-09T00:23:21.200Z,39.00
2023-04-09T00:28:55.994Z,41.20
2023-04-09T00:35:09.308Z,42.00
2023-04-09T00:41:08.313Z,41.30
2023-04-09T00:46:51.660Z,37.80
2023-04-09T00:53:01.566Z,37.50
2023-04-09T00:59:25.980Z,35.90
2023-04-09T01:06:08.497Z,37.50
2023-04-09T01:12:53.805Z,39.60
2023-04-09T01:19:38.277Z,42.30
2023-04-09T01:32:40.804Z,42.40
2023-04-09T01:39:16.888Z,41.20
2023-04-09T01:45:38.607Z,46.80
2023-04-09T01:51:16.185Z,49.20
2023-04-09T01:57:12.929Z,44.50
2023-04-09T02:02:59.444Z,46.40
2023-04-09T02:08:25.113Z,48.90
2023-04-09T02:13:45.037Z,50.30
2023-04-09T02:19:51.746Z,51.10
2023-04-09T02:26:37.420Z,50.30
2023-04-09T02:31:56.071Z,49.70
2023-04-09T02:37:51.028Z,48.30
2023-04-09T02:44:02.218Z,50.60
2023-04-09T02:49:31.550Z,49.80
2023-04-09T02:55:10.906Z,49.70
2023-04-09T03:00:20.940Z,49.20
2023-04-09T03:05:42.724Z,53.10
2023-04-09T03:11:44.182Z,53.10
2023-04-09T03:17:41.273Z,50.60
2023-04-09T03:23:46.650Z,53.50
2023-04-09T03:29:12.480Z,49.60
2023-04-09T03:35:19.083Z,51.40
2023-04-09T03:41:49.835Z,55.30
2023-04-09T03:48:43.631Z,54.40
2023-04-09T03:55:46.611Z,51.50
2023-04-09T04:02:29.980Z,51.30
2023-04-09T04:08:31.722Z,54.40
2023-04-09T04:14:30.408Z,51.00
2023-04-09T04:20:43.856Z,51.20
2023-04-09T04:26:12.395Z,55.20
2023-04-09T04:32:09.231Z,58.00
2023-04-09T04:38:50.774Z,63.40
2023-04-09T04:45:01.006Z,58.80
2023-04-09T04:51:22.181Z,51.70
2023-04-09T04:58:11.536Z,47.40
2023-04-09T05:05:05.254Z,47.60
2023-04-09T05:12:09.153Z,48.40
2023-04-09T05:19:13.745Z,46.10
2023-04-09T05:24:54.883Z,49.90
2023-04-09T05:30:50.771Z,48.90
2023-04-09T05:36:55.189Z,46.20
2023-04-09T05:43:27.865Z,48.60
2023-04-09T05:49:41.624Z,44.60
2023-04-09T05:55:19.746Z,48.10
2023-04-09T06:01:06.464Z,61.00
2023-04-09T06:08:01.659Z,64.40
2023-04-09T06:14:26.304Z,72.00
2023-04-09T06:20:54.529Z,71.10
2023-04-09T06:27:42.189Z,65.70
2023-04-09T06:34:48.568Z,64.50
2023-04-09T06:41:20.040Z,66.00
2023-04-09T06:48:14.520Z,63.90
2023-04-09T06:55:18.227Z,62.80
2023-04-09T07:01:41.365Z,59.40
2023-04-09T07:07:52.256Z,61.10
2023-04-09T07:13:53.688Z,61.50
2023-04-09T07:19:59.151Z,53.20
2023-04-09T07:26:07.348Z,54.60
2023-04-09T07:32:21.236Z,57.40
2023-04-09T07:39:15.268Z,58.30
2023-04-09T07:45:22.821Z,54.50
2023-04-09T07:51:27.708Z,53.60
2023-04-09T07:57:53.867Z,56.50
2023-04-09T08:04:43.992Z,53.50
2023-04-09T08:11:39.600Z,51.20
2023-04-09T08:17:40.811Z,50.10
2023-04-09T08:23:25.654Z,51.00
2023-04-09T08:29:23.791Z,54.20
2023-04-09T08:35:12.523Z,47.90
2023-04-09T08:41:18.114Z,51.90
2023-04-09T08:48:08.776Z,52.50
2023-04-09T08:54:55.683Z,52.60
2023-04-09T09:01:35.132Z,52.80
2023-04-09T09:07:48.335Z,61.00
2023-04-09T09:15:02.324Z,56.40
2023-04-09T09:20:48.344Z,61.50
2023-04-09T09:26:57.059Z,54.80
2023-04-09T09:32:35.872Z,62.20
2023-04-09T09:38:17.798Z,59.60
2023-04-09T09:43:49.272Z,59.90
2023-04-09T09:49:14.263Z,58.70
2023-04-09T09:55:42.457Z,55.80
2023-04-09T10:02:29.749Z,57.80
2023-04-09T10:08:25.750Z,63.00
2023-04-09T10:15:00.437Z,58.10
2023-04-09T10:21:23.668Z,58.70
2023-04-09T10:27:50.917Z,57.40
2023-04-09T10:34:22.482Z,56.00
2023-04-09T10:40:25.868Z,56.00
2023-04-09T10:46:52.625Z,60.20
2023-04-09T10:52:15.371Z,65.70
2023-04-09T10:58:11.309Z,62.00
2023-04-09T11:04:20.336Z,61.80
2023-04-09T11:10:52.499Z,59.70
2023-04-09T11:17:12.932Z,57.40
2023-04-09T11:23:58.822Z,59.40
2023-04-09T11:30:41.106Z,57.80
2023-04-09T11:37:04.840Z,56.70
2023-04-09T11:42:46.883Z,55.70
2023-04-09T11:48:34.348Z,57.50
2023-04-09T11:53:57.823Z,56.90
2023-04-09T12:00:08.940Z,53.60
2023-04-09T12:05:29.345Z,52.60
2023-04-09T12:10:54.309Z,47.30
2023-04-09T12:16:00.869Z,51.70
2023-04-09T12:22:43.027Z,46.30
2023-04-09T12:28:24.495Z,42.00
2023-04-09T12:33:42.503Z,41.30
2023-04-09T12:39:10.945Z,48.10
2023-04-09T12:44:40.559Z,38.90
2023-04-09T12:49:51.264Z,39.00
2023-04-09T12:55:34.236Z,37.70
2023-04-09T13:01:17.495Z,34.40
2023-04-09T13:06:34.264Z,30.10
2023-04-09T13:11:41.672Z,30.40
2023-04-09T13:17:44.059Z,29.00
2023-04-09T13:24:08.478Z,28.30
2023-04-09T13:29:39.166Z,28.60
2023-04-09T13:35:29.297Z,27.20
2023-04-09T13:41:44.877Z,27.20
2023-04-09T13:48:16.159Z,22.80
2023-04-09T13:54:11.361Z,23.50
2023-04-09T13:59:49.381Z,26.70
2023-04-09T14:06:09.413Z,24.30
2023-04-09T14:11:54.929Z,23.70
2023-04-09T14:17:16.865Z,24.90
2023-04-09T14:22:50.840Z,25.40
2023-04-09T14:28:30.082Z,24.90
2023-04-09T14:34:15.531Z,24.60
2023-04-09T14:40:21.138Z,24.70
2023-04-09T14:46:15.278Z,25.00
2023-04-09T14:51:43.313Z,26.40
2023-04-09T14:56:58.377Z,26.50
2023-04-09T15:02:35.641Z,26.40
2023-04-09T15:07:44.054Z,25.10
2023-04-09T15:13:07.115Z,23.00
2023-04-09T15:18:16.923Z,25.00
2023-04-09T15:24:12.656Z,21.30
2023-04-09T15:30:07.148Z,21.80
2023-04-09T15:35:24.127Z,25.40
2023-04-09T15:41:06.693Z,27.50
2023-04-09T15:46:17.602Z,30.30
2023-04-09T15:51:33.908Z,33.90
2023-04-09T15:56:40.383Z,31.90
2023-04-09T16:01:46.446Z,28.00
2023-04-09T16:07:06.870Z,27.30
2023-04-09T16:12:53.961Z,24.60
2023-04-09T16:18:56.792Z,24.90
2023-04-09T16:24:18.190Z,23.30
2023-04-09T16:30:15.120Z,22.50
2023-04-09T16:35:21.784Z,22.50
2023-04-09T16:40:24.635Z,26.10
2023-04-09T16:46:41.051Z,28.40
2023-04-09T16:53:32.357Z,30.40
2023-04-09T16:59:55.475Z,31.60
2023-04-09T17:05:28.833Z,31.60
2023-04-09T17:11:21.300Z,34.70
2023-04-09T17:16:47.745Z,35.40
2023-04-09T17:23:15.843Z,42.50
2023-04-09T17:29:17.176Z,42.30
2023-04-09T17:35:38.094Z,44.60
2023-04-09T17:42:26.765Z,47.90
2023-04-09T17:49:20.171Z,49.50
2023-04-09T17:56:16.059Z,54.20
2023-04-09T18:03:22.577Z,52.40
2023-04-09T18:10:06.069Z,48.90
2023-04-09T18:16:00.834Z,52.10
2023-04-09T18:22:55.716Z,54.60
2023-04-09T18:28:54.365Z,49.20
2023-04-09T18:35:39.535Z,57.40
2023-04-09T18:43:02.936Z,58.60
2023-04-09T18:49:58.422Z,50.90
2023-04-09T18:57:13.342Z,51.70
2023-04-09T19:03:47.755Z,56.60
2023-04-09T19:10:39.394Z,55.70
2023-04-09T19:17:11.815Z,59.00
2023-04-09T19:57:26.361Z,58.00
2023-04-09T20:03:59.206Z,55.40
2023-04-09T20:10:15.120Z,56.60
2023-04-09T20:15:52.960Z,57.60
2023-04-09T20:22:56.413Z,64.50
2023-04-09T20:29:49.359Z,65.70
2023-04-09T20:37:14.734Z,67.50
2023-04-09T20:43:50.773Z,70.70
2023-04-09T20:50:02.048Z,57.80
2023-04-09T20:55:54.411Z,67.00
2023-04-09T21:02:11.529Z,68.20
2023-04-09T21:08:57.988Z,71.10
2023-04-09T21:16:05.561Z,66.10
2023-04-09T21:23:08.099Z,70.50
2023-04-09T21:30:11.086Z,72.20
2023-04-09T21:37:19.305Z,71.10
2023-04-09T21:44:14.146Z,68.50
2023-04-09T21:51:13.038Z,74.40
2023-04-09T21:58:02.382Z,67.90
2023-04-09T22:04:42.965Z,66.80
2023-04-09T22:11:07.621Z,62.10
2023-04-09T22:17:34.123Z,69.40
2023-04-09T22:24:19.757Z,65.50
2023-04-09T22:30:34.982Z,68.50
2023-04-09T22:37:33.041Z,72.30
2023-04-09T22:44:36.881Z,68.70
2023-04-09T22:51:59.629Z,67.10
2023-04-09T22:58:58.403Z,66.00
2023-04-09T23:06:08.895Z,67.00
2023-04-09T23:13:17.832Z,67.50
2023-04-09T23:19:59.223Z,65.00
2023-04-09T23:26:28.029Z,65.00
2023-04-09T23:33:51.565Z,67.10
2023-04-09T23:40:54.396Z,70.40
2023-04-09T23:48:04.530Z,74.50
2023-04-09T23:55:04.401Z,67.50
